Time;durP1;ratioP1;P1;durP2;ratioP2;P2;SDS_P1;SDS_P2;PMS_P1;PMS_P2;Temp;Humidity;BMP_temperature;BMP_pressure;BME280_temperature;BME280_humidity;BME280_pressure;Samples;Min_cycle;Max_cycle;Signal;HPM_P1;HPM_P2
2023/07/02 00:00:17;;;;;;;14.13;9.00;;;;;;;-149.37;100.00;59372.97;10196367;29;20135;-75
2023/07/02 00:05:22;;;;;;;16.08;9.15;;;;;;;-149.37;100.00;59372.97;10199359;29;20091;-75
2023/07/02 00:10:25;;;;;;;14.68;9.07;;;;;;;-149.37;100.00;59372.97;10203104;29;20044;-75
2023/07/02 00:15:29;;;;;;;12.98;9.45;;;;;;;-149.37;100.00;59372.97;10177082;29;20043;-75
2023/07/02 00:20:34;;;;;;;14.18;8.57;;;;;;;-149.37;100.00;59372.97;10179495;29;20070;-75
2023/07/02 00:25:38;;;;;;;17.98;10.48;;;;;;;-149.37;100.00;59372.97;10190749;29;20047;-74
2023/07/02 00:30:42;;;;;;;18.65;10.52;;;;;;;-149.37;100.00;59372.97;10188799;29;20050;-75
2023/07/02 00:35:47;;;;;;;19.63;13.27;;;;;;;-149.37;100.00;59372.97;10197423;29;20114;-74
2023/07/02 00:40:50;;;;;;;22.30;13.00;;;;;;;-149.37;100.00;59372.97;10186717;29;20400;-74
2023/07/02 00:45:54;;;;;;;18.65;13.70;;;;;;;-149.37;100.00;59372.97;10185164;29;20040;-74
2023/07/02 00:50:57;;;;;;;19.33;13.90;;;;;;;-149.37;100.00;59372.97;10179593;29;20044;-74
2023/07/02 00:56:00;;;;;;;20.15;14.20;;;;;;;-149.37;100.00;59372.97;10181033;29;20040;-75
2023/07/02 01:01:04;;;;;;;21.10;14.18;;;;;;;-149.37;100.00;59372.97;10188522;29;20059;-74
2023/07/02 01:06:07;;;;;;;23.98;14.00;;;;;;;-149.37;100.00;59372.97;10192459;29;20046;-74
2023/07/02 01:11:10;;;;;;;14.02;11.50;;;;;;;-149.37;100.00;59372.97;10191129;29;20123;-76
2023/07/02 01:16:15;;;;;;;17.70;12.63;;;;;;;-149.37;100.00;59372.97;10187273;29;20050;-74
2023/07/02 01:21:20;;;;;;;19.67;12.15;;;;;;;-149.37;100.00;59372.97;10184970;29;20047;-74
2023/07/02 01:26:23;;;;;;;17.85;11.43;;;;;;;-149.37;100.00;59372.97;10173274;29;20044;-74
2023/07/02 01:31:26;;;;;;;15.10;11.45;;;;;;;-149.37;100.00;59372.97;10175747;29;20585;-74
2023/07/02 01:36:30;;;;;;;18.30;12.30;;;;;;;-149.37;100.00;59372.97;10187914;29;20531;-74
2023/07/02 01:41:43;;;;;;;16.25;12.38;;;;;;;-149.37;100.00;59372.97;10190668;29;20051;-74
2023/07/02 01:46:48;;;;;;;14.77;9.55;;;;;;;-149.37;100.00;59372.97;10188760;29;20040;-74
2023/07/02 01:51:53;;;;;;;14.18;9.88;;;;;;;-149.37;100.00;59372.97;10182233;29;20131;-74
2023/07/02 01:56:56;;;;;;;11.80;10.30;;;;;;;-149.37;100.00;59372.97;10186567;29;20044;-74
2023/07/02 02:01:59;;;;;;;11.95;9.88;;;;;;;-149.37;100.00;59372.97;10179209;29;20054;-74
2023/07/02 02:07:04;;;;;;;20.65;11.68;;;;;;;-149.37;100.00;59372.97;10182349;29;20040;-74
2023/07/02 02:12:08;;;;;;;18.90;12.60;;;;;;;-149.37;100.00;59372.97;10188559;29;20048;-74
2023/07/02 02:17:11;;;;;;;15.43;11.85;;;;;;;-149.37;100.00;59372.97;10195069;29;20495;-74
2023/07/02 02:22:16;;;;;;;17.83;13.13;;;;;;;-149.37;100.00;59372.97;10197484;29;20075;-74
2023/07/02 02:27:18;;;;;;;18.67;13.35;;;;;;;-149.37;100.00;59372.97;10204175;29;20411;-74
2023/07/02 02:32:22;;;;;;;15.55;12.90;;;;;;;-149.37;100.00;59372.97;10187952;29;20044;-74
2023/07/02 02:37:26;;;;;;;20.67;13.50;;;;;;;-149.37;100.00;59372.97;10184876;29;20044;-74
2023/07/02 02:42:31;;;;;;;18.77;13.98;;;;;;;-149.37;100.00;59372.97;10190670;29;20151;-74
2023/07/02 02:47:34;;;;;;;21.63;16.00;;;;;;;-149.37;100.00;59372.97;10198861;29;20047;-74
2023/07/02 02:52:38;;;;;;;21.35;16.45;;;;;;;-149.37;100.00;59372.97;10203735;29;20111;-74
2023/07/02 02:57:42;;;;;;;22.95;15.15;;;;;;;-149.37;100.00;59372.97;10199486;29;20062;-74
2023/07/02 03:02:45;;;;;;;29.60;17.85;;;;;;;-149.37;100.00;59372.97;10197407;29;20039;-74
2023/07/02 03:07:51;;;;;;;27.48;19.35;;;;;;;-149.37;100.00;59372.97;10194180;29;20063;-74
2023/07/02 03:12:54;;;;;;;28.42;19.70;;;;;;;-149.37;100.00;59372.97;10192031;29;20051;-73
2023/07/02 03:17:57;;;;;;;24.23;17.88;;;;;;;-149.37;100.00;59372.97;10198326;29;20044;-74
2023/07/02 03:23:01;;;;;;;29.63;17.15;;;;;;;-149.37;100.00;59372.97;10198126;29;20048;-74
2023/07/02 03:28:04;;;;;;;26.25;19.65;;;;;;;-149.37;100.00;59372.97;10200638;29;20043;-73
2023/07/02 03:33:09;;;;;;;27.20;18.15;;;;;;;-149.37;100.00;59372.97;10198590;29;20040;-74
2023/07/02 03:38:14;;;;;;;33.28;21.50;;;;;;;-149.37;100.00;59372.97;10196931;29;20119;-73
2023/07/02 03:43:17;;;;;;;31.58;21.70;;;;;;;-149.37;100.00;59372.97;10192328;29;20048;-74
2023/07/02 03:48:20;;;;;;;33.60;24.05;;;;;;;-149.37;100.00;59372.97;10191602;29;20516;-75
2023/07/02 03:53:24;;;;;;;27.65;18.33;;;;;;;-149.37;100.00;59372.97;10196841;29;20044;-74
2023/07/02 03:58:27;;;;;;;38.40;24.15;;;;;;;-149.37;100.00;59372.97;10204170;29;20534;-74
2023/07/02 04:03:30;;;;;;;42.95;28.10;;;;;;;-149.37;100.00;59372.97;10198092;29;20046;-75
2023/07/02 04:08:35;;;;;;;34.08;24.38;;;;;;;-149.37;100.00;59372.97;10197685;29;20127;-77
2023/07/02 04:13:38;;;;;;;29.33;21.65;;;;;;;-149.37;100.00;59372.97;10195382;29;20525;-77
2023/07/02 04:18:41;;;;;;;41.85;26.88;;;;;;;-149.37;100.00;59372.97;10189747;29;20070;-76
2023/07/02 04:23:45;;;;;;;30.75;21.00;;;;;;;-149.37;100.00;59372.97;10189130;29;20367;-77
2023/07/02 04:28:48;;;;;;;34.58;17.48;;;;;;;-149.37;100.00;59372.97;10194649;29;20043;-77
2023/07/02 04:33:52;;;;;;;25.48;13.60;;;;;;;-149.37;100.00;59372.97;10198357;29;20044;-76
2023/07/02 04:38:56;;;;;;;19.30;12.10;;;;;;;-149.37;100.00;59372.97;10198858;29;20074;-76
2023/07/02 04:43:59;;;;;;;19.65;10.90;;;;;;;-149.37;100.00;59372.97;10195259;29;20793;-76
2023/07/02 04:49:02;;;;;;;19.25;8.70;;;;;;;-149.37;100.00;59372.97;10189459;29;20043;-75
2023/07/02 04:54:06;;;;;;;15.77;9.38;;;;;;;-149.37;100.00;59372.97;10189449;29;20055;-76
2023/07/02 04:59:09;;;;;;;18.90;10.25;;;;;;;-149.37;100.00;59372.97;10190640;29;20051;-76
2023/07/02 05:04:12;;;;;;;18.95;10.43;;;;;;;-149.37;100.00;59372.97;10196904;29;20043;-75
2023/07/02 05:09:16;;;;;;;15.05;8.40;;;;;;;-149.37;100.00;59372.97;10207379;29;20043;-76
2023/07/02 05:14:19;;;;;;;22.85;9.38;;;;;;;-149.37;100.00;59372.97;10199168;29;20046;-75
2023/07/02 05:19:22;;;;;;;22.85;10.02;;;;;;;-149.37;100.00;59372.97;10198999;29;20052;-75
2023/07/02 05:24:26;;;;;;;18.88;8.80;;;;;;;-149.37;100.00;59372.97;10191971;29;20051;-77
2023/07/02 05:29:29;;;;;;;15.35;8.45;;;;;;;-149.37;100.00;59372.97;10184991;29;20032;-76
2023/07/02 05:34:32;;;;;;;15.30;8.40;;;;;;;-149.37;100.00;59372.97;10192616;29;20047;-76
2023/07/02 05:39:36;;;;;;;21.38;8.43;;;;;;;-149.37;100.00;59372.97;10190747;29;20076;-75
2023/07/02 05:44:39;;;;;;;22.67;8.48;;;;;;;-149.37;100.00;59372.97;10195288;29;20043;-76
2023/07/02 05:49:42;;;;;;;15.13;6.97;;;;;;;-149.37;100.00;59372.97;10197939;29;20039;-75
2023/07/02 05:54:46;;;;;;;17.58;7.25;;;;;;;-149.37;100.00;59372.97;10197408;29;20044;-74
2023/07/02 05:59:49;;;;;;;26.33;8.25;;;;;;;-149.37;100.00;59372.97;10193531;29;20070;-75
2023/07/02 06:04:52;;;;;;;13.85;6.40;;;;;;;-149.37;100.00;59372.97;10193873;29;20515;-75
2023/07/02 06:09:57;;;;;;;18.60;7.35;;;;;;;-149.37;100.00;59372.97;10198197;29;20059;-74
2023/07/02 06:15:00;;;;;;;26.60;8.27;;;;;;;-149.37;100.00;59372.97;10220205;28;20048;-75
2023/07/02 06:20:04;;;;;;;21.38;7.82;;;;;;;-149.37;100.00;59372.97;10201531;29;20044;-76
2023/07/02 06:25:09;;;;;;;26.55;9.57;;;;;;;-149.37;100.00;59372.97;10198469;29;20040;-75
2023/07/02 06:30:12;;;;;;;18.17;5.85;;;;;;;-149.37;100.00;59372.97;10200446;29;20048;-75
2023/07/02 06:35:15;;;;;;;23.15;9.02;;;;;;;-149.37;100.00;59372.97;10200315;29;20059;-75
2023/07/02 06:40:22;;;;;;;20.83;7.28;;;;;;;-149.37;100.00;59372.97;10189900;29;20031;-74
2023/07/02 06:45:25;;;;;;;15.93;6.22;;;;;;;-149.37;100.00;59372.97;10197664;29;20050;-77
2023/07/02 06:50:28;;;;;;;18.45;8.73;;;;;;;-149.37;100.00;59372.97;10198618;29;20047;-74
2023/07/02 06:55:32;;;;;;;26.65;9.68;;;;;;;-149.37;100.00;59372.97;10200527;29;20074;-74
2023/07/02 07:00:36;;;;;;;17.55;7.72;;;;;;;-149.37;100.00;59372.97;10205226;29;20044;-74
2023/07/02 07:05:39;;;;;;;19.27;7.97;;;;;;;-149.37;100.00;59372.97;10208550;29;20080;-74
2023/07/02 07:10:45;;;;;;;17.48;6.88;;;;;;;-149.37;100.00;59372.97;10211166;29;20044;-74
2023/07/02 07:15:48;;;;;;;15.48;6.88;;;;;;;-149.37;100.00;59372.97;10202787;29;20123;-73
2023/07/02 07:20:52;;;;;;;14.50;6.22;;;;;;;-149.37;100.00;59372.97;10202192;29;20039;-73
2023/07/02 07:25:56;;;;;;;14.43;5.63;;;;;;;-149.37;100.00;59372.97;10205816;29;20123;-73
2023/07/02 07:30:59;;;;;;;18.02;6.85;;;;;;;-149.37;100.00;59372.97;10209490;29;20565;-73
2023/07/02 07:36:02;;;;;;;15.57;6.68;;;;;;;-149.37;100.00;59372.97;10202549;29;20059;-74
2023/07/02 07:41:06;;;;;;;18.80;7.60;;;;;;;-149.37;100.00;59372.97;10201843;29;20118;-73
2023/07/02 07:46:09;;;;;;;18.48;8.25;;;;;;;-149.37;100.00;59372.97;10196481;29;20063;-73
2023/07/02 07:51:12;;;;;;;23.67;7.38;;;;;;;-149.37;100.00;59372.97;10199656;29;20048;-73
2023/07/02 07:56:16;;;;;;;19.77;7.93;;;;;;;-149.37;100.00;59372.97;10202303;29;20411;-73
2023/07/02 08:01:20;;;;;;;15.90;4.68;;;;;;;-149.37;100.00;59372.97;10205364;29;20051;-74
2023/07/02 08:06:23;;;;;;;19.98;7.43;;;;;;;-149.37;100.00;59372.97;10202419;29;20067;-74
2023/07/02 08:11:27;;;;;;;20.13;6.75;;;;;;;-149.37;100.00;59372.97;10200002;29;20036;-75
2023/07/02 08:16:30;;;;;;;15.80;6.88;;;;;;;-149.37;100.00;59372.97;10195321;29;20123;-74
2023/07/02 08:21:33;;;;;;;17.73;7.25;;;;;;;-149.37;100.00;59372.97;10191588;29;20141;-75
2023/07/02 08:26:38;;;;;;;17.95;7.90;;;;;;;-149.37;100.00;59372.97;10188357;29;20071;-74
2023/07/02 08:31:41;;;;;;;14.82;6.32;;;;;;;-149.37;100.00;59372.97;10191222;29;20463;-76
2023/07/02 08:36:44;;;;;;;21.92;7.60;;;;;;;-149.37;100.00;59372.97;10195961;29;20055;-75
2023/07/02 08:41:49;;;;;;;16.48;6.78;;;;;;;-149.37;100.00;59372.97;10197526;29;20118;-73
2023/07/02 08:46:55;;;;;;;16.30;7.20;;;;;;;-149.37;100.00;59372.97;10199329;29;20040;-72
2023/07/02 08:51:58;;;;;;;20.98;5.65;;;;;;;-149.37;100.00;59372.97;10193832;29;20067;-73
2023/07/02 08:57:05;;;;;;;16.13;7.18;;;;;;;-149.37;100.00;59372.97;10197412;29;20039;-72
2023/07/02 09:02:08;;;;;;;16.77;7.30;;;;;;;-149.37;100.00;59372.97;10198046;29;20039;-73
2023/07/02 09:07:12;;;;;;;18.58;7.25;;;;;;;-149.37;100.00;59372.97;10199842;29;20035;-73
2023/07/02 09:12:26;;;;;;;13.63;6.57;;;;;;;-149.37;100.00;59372.97;10202954;29;20043;-74
2023/07/02 09:17:31;;;;;;;13.13;4.97;;;;;;;-149.37;100.00;59372.97;10202751;29;20052;-74
2023/07/02 09:22:34;;;;;;;19.42;6.50;;;;;;;-149.37;100.00;59372.97;10200640;29;20108;-74
2023/07/02 09:27:39;;;;;;;13.68;5.03;;;;;;;-149.37;100.00;59372.97;10197363;29;20551;-73
2023/07/02 09:32:43;;;;;;;18.65;5.90;;;;;;;-149.37;100.00;59372.97;10196994;29;20047;-74
2023/07/02 09:37:49;;;;;;;11.05;4.57;;;;;;;-149.37;100.00;59372.97;10193302;29;20157;-74
2023/07/02 09:42:55;;;;;;;18.33;5.40;;;;;;;-149.37;100.00;59372.97;10192071;29;20036;-74
2023/07/02 09:47:59;;;;;;;16.20;5.65;;;;;;;-149.37;100.00;59372.97;10197501;29;20392;-74
2023/07/02 09:53:02;;;;;;;11.65;5.57;;;;;;;-149.37;100.00;59372.97;10200391;29;20039;-74
2023/07/02 09:58:07;;;;;;;14.55;5.65;;;;;;;-149.37;100.00;59372.97;10202384;29;20050;-74
2023/07/02 10:03:10;;;;;;;11.65;6.63;;;;;;;-149.37;100.00;59372.97;10194114;29;20045;-74
2023/07/02 10:08:14;;;;;;;18.67;7.35;;;;;;;-149.37;100.00;59372.97;10178011;29;20044;-74
2023/07/02 10:13:27;;;;;;;8.05;4.90;;;;;;;-149.37;100.00;59372.97;10188462;29;20119;-74
2023/07/02 10:18:30;;;;;;;17.33;6.70;;;;;;;-149.37;100.00;59372.97;10187694;29;20044;-75
2023/07/02 10:23:35;;;;;;;17.13;6.32;;;;;;;-149.37;100.00;59372.97;10189974;29;20052;-74
2023/07/02 10:28:39;;;;;;;10.88;5.20;;;;;;;-149.37;100.00;59372.97;10193335;29;20051;-74
2023/07/02 10:33:44;;;;;;;12.23;6.03;;;;;;;-149.37;100.00;59372.97;10185902;29;20414;-74
2023/07/02 10:38:47;;;;;;;12.15;5.65;;;;;;;-149.37;100.00;59372.97;10181741;29;20052;-74
2023/07/02 10:43:52;;;;;;;11.25;5.82;;;;;;;-149.37;100.00;59372.97;10189972;29;20058;-74
2023/07/02 10:48:55;;;;;;;12.07;6.18;;;;;;;-149.37;100.00;59372.97;10191395;29;20391;-74
2023/07/02 10:53:59;;;;;;;10.35;5.57;;;;;;;-149.37;100.00;59372.97;10194569;29;20043;-74
2023/07/02 10:59:04;;;;;;;13.85;4.80;;;;;;;-149.37;100.00;59372.97;10195403;29;20379;-74
2023/07/02 11:04:07;;;;;;;12.07;6.10;;;;;;;-149.37;100.00;59372.97;10192622;29;20040;-74
2023/07/02 11:09:17;;;;;;;14.82;5.80;;;;;;;-149.37;100.00;59372.97;10186900;29;20579;-74
2023/07/02 11:14:32;;;;;;;10.88;5.63;;;;;;;-149.37;100.00;59372.97;10181305;29;20064;-74
2023/07/02 11:19:36;;;;;;;13.40;6.25;;;;;;;18.39;42.43;99757.34;10184822;29;20048;-75
2023/07/02 11:24:39;;;;;;;13.57;6.00;;;;;;;19.14;40.84;99764.25;10189709;29;20086;-74
2023/07/02 11:29:44;;;;;;;12.50;5.85;;;;;;;18.27;42.60;99762.44;10191067;29;20139;-74
2023/07/02 11:34:54;;;;;;;12.38;5.43;;;;;;;18.26;44.48;99753.41;10191259;29;20048;-74
2023/07/02 11:39:57;;;;;;;10.38;5.00;;;;;;;20.31;40.97;99744.56;10191649;29;20044;-74
2023/07/02 11:45:01;;;;;;;17.55;6.38;;;;;;;19.38;40.51;99750.22;10187294;29;20044;-74
2023/07/02 11:50:05;;;;;;;16.88;6.75;;;;;;;19.82;41.84;99759.16;10174523;29;20052;-75
2023/07/02 11:55:26;;;;;;;9.35;5.00;;;;;;;18.89;41.80;99763.78;10189044;29;20036;-75
2023/07/02 12:00:31;;;;;;;12.70;6.10;;;;;;;18.17;43.22;99761.88;10184994;29;20043;-74
2023/07/02 12:05:33;;;;;;;10.27;4.18;;;;;;;18.93;42.89;99765.09;10192487;29;20131;-74
2023/07/02 12:10:36;;;;;;;15.95;5.70;;;;;;;19.91;41.58;99777.00;10193832;29;20042;-74
2023/07/02 12:15:42;;;;;;;15.68;6.30;;;;;;;20.49;41.44;99753.03;10192798;29;20048;-74
2023/07/02 12:20:45;;;;;;;13.85;5.55;;;;;;;18.65;42.83;99771.28;10183304;29;20048;-74
2023/07/02 12:25:48;;;;;;;16.38;5.55;;;;;;;-149.37;100.00;59372.97;10178033;29;20052;-74
2023/07/02 12:30:52;;;;;;;11.70;6.53;;;;;;;-149.37;100.00;59372.97;10179901;29;20522;-74
2023/07/02 12:35:55;;;;;;;14.05;5.55;;;;;;;21.68;39.18;99771.44;10197042;29;20052;-74
2023/07/02 12:40:58;;;;;;;10.50;5.60;;;;;;;21.17;39.89;99758.44;10194351;29;20056;-74
2023/07/02 12:46:02;;;;;;;8.82;5.20;;;;;;;20.77;37.77;99771.16;10191752;29;20043;-74
2023/07/02 12:51:05;;;;;;;13.88;5.95;;;;;;;21.74;37.11;99756.09;10191496;29;20074;-74
2023/07/02 12:56:08;;;;;;;10.88;5.28;;;;;;;21.43;37.92;99771.25;10188581;29;20048;-74
2023/07/02 13:01:12;;;;;;;7.03;4.00;;;;;;;21.54;37.80;99796.28;10179804;29;20044;-74
2023/07/02 13:06:15;;;;;;;12.00;5.68;;;;;;;22.66;36.05;99764.25;10187651;29;20043;-73
2023/07/02 13:11:18;;;;;;;10.80;4.47;;;;;;;21.12;37.77;99765.59;10192795;29;20055;-73
2023/07/02 13:16:23;;;;;;;11.55;4.72;;;;;;;21.84;36.50;99785.75;10192834;29;20054;-73
2023/07/02 13:21:27;;;;;;;11.43;4.63;;;;;;;22.20;35.43;99781.69;10193584;29;20067;-73
2023/07/02 13:26:29;;;;;;;8.57;4.35;;;;;;;21.65;34.92;99790.16;10191972;29;20097;-74
2023/07/02 13:31:34;;;;;;;8.10;4.40;;;;;;;20.74;35.15;99779.75;10188498;29;20059;-74
2023/07/02 13:36:37;;;;;;;9.02;4.53;;;;;;;19.86;37.69;99791.25;10187673;29;20464;-74
2023/07/02 13:41:39;;;;;;;8.73;4.55;;;;;;;20.51;36.79;99794.56;10185295;29;20056;-74
2023/07/02 13:46:45;;;;;;;10.98;5.88;;;;;;;21.10;36.45;99790.34;10198154;29;20044;-73
2023/07/02 13:51:49;;;;;;;9.48;4.28;;;;;;;21.70;36.57;99798.56;10199428;29;20052;-74
2023/07/02 13:56:52;;;;;;;11.05;4.72;;;;;;;21.59;36.36;99800.06;10198706;29;20048;-73
2023/07/02 14:01:56;;;;;;;13.85;4.65;;;;;;;21.20;36.95;99796.25;10190729;29;20044;-73
2023/07/02 14:07:00;;;;;;;9.52;5.00;;;;;;;21.88;36.17;99790.56;10187311;29;20083;-73
2023/07/02 14:12:03;;;;;;;10.80;5.15;;;;;;;20.46;39.11;99790.75;10190100;29;20099;-73
2023/07/02 14:17:07;;;;;;;8.18;4.93;;;;;;;20.65;38.56;99800.06;10196772;29;20521;-73
2023/07/02 14:22:10;;;;;;;7.60;4.10;;;;;;;20.88;37.79;99794.28;10201539;29;20048;-73
2023/07/02 14:27:13;;;;;;;12.68;4.22;;;;;;;20.04;38.64;99798.06;10204414;29;20047;-73
2023/07/02 14:32:17;;;;;;;13.27;5.65;;;;;;;20.23;39.58;99796.50;10203004;29;20043;-74
2023/07/02 14:37:20;;;;;;;10.43;4.63;;;;;;;20.73;38.69;99799.88;10201420;29;20072;-73
2023/07/02 14:42:23;;;;;;;12.18;5.25;;;;;;;20.15;39.02;99813.03;10194227;29;20036;-73
2023/07/02 14:47:28;;;;;;;9.23;4.53;;;;;;;19.22;40.64;99792.16;10203287;29;20055;-74
2023/07/02 14:52:31;;;;;;;12.85;4.50;;;;;;;20.59;39.41;99793.53;10200308;29;20704;-72
2023/07/02 14:57:33;;;;;;;12.52;5.05;;;;;;;21.26;38.67;99780.09;10200327;29;20151;-73
2023/07/02 15:02:38;;;;;;;9.85;4.20;;;;;;;21.46;38.41;99780.94;10202214;29;20051;-73
2023/07/02 15:07:41;;;;;;;13.27;5.13;;;;;;;20.45;39.65;99781.72;10201533;29;20127;-74
2023/07/02 15:12:43;;;;;;;11.55;5.53;;;;;;;21.26;38.98;99796.47;10197064;29;20082;-74
2023/07/02 15:17:48;;;;;;;10.65;4.97;;;;;;;21.15;37.82;99787.84;10188055;29;20508;-73
2023/07/02 15:22:51;;;;;;;10.85;4.57;;;;;;;21.76;37.42;99775.88;10191379;29;20063;-74
2023/07/02 15:27:54;;;;;;;12.23;5.13;;;;;;;21.52;37.81;99763.69;10202886;29;20131;-73
2023/07/02 15:32:58;;;;;;;11.73;5.22;;;;;;;20.41;40.02;99774.19;10208888;29;20039;-73
2023/07/02 15:38:01;;;;;;;14.25;5.13;;;;;;;21.06;38.25;99767.22;10205306;29;20511;-73
2023/07/02 15:43:04;;;;;;;9.85;4.20;;;;;;;21.10;38.32;99789.53;10207804;29;20401;-73
2023/07/02 15:48:08;;;;;;;12.98;5.60;;;;;;;20.11;39.98;99788.91;10202850;29;20133;-74
2023/07/02 15:53:11;;;;;;;14.27;5.07;;;;;;;21.85;37.49;99799.19;10195784;29;20416;-74
2023/07/02 15:58:14;;;;;;;13.70;5.30;;;;;;;21.65;37.75;99779.22;10198173;29;20062;-73
2023/07/02 16:03:18;;;;;;;11.45;5.03;;;;;;;20.28;39.21;99774.94;10193994;29;20114;-73
2023/07/02 16:08:26;;;;;;;10.00;4.10;;;;;;;20.91;38.48;99789.22;10195433;29;20074;-73
2023/07/02 16:13:29;;;;;;;7.63;3.88;;;;;;;21.89;36.44;99784.06;10205828;29;20036;-74
2023/07/02 16:18:33;;;;;;;5.07;3.05;;;;;;;21.17;37.26;99780.28;10206696;29;20134;-74
2023/07/02 16:23:36;;;;;;;17.52;4.95;;;;;;;21.12;37.23;99777.34;10203176;29;20047;-74
2023/07/02 16:28:40;;;;;;;12.95;4.40;;;;;;;22.11;36.37;99792.03;10199537;29;20434;-74
2023/07/02 16:33:44;;;;;;;9.73;4.72;;;;;;;22.32;36.46;99783.53;10196616;29;20050;-74
2023/07/02 16:38:48;;;;;;;5.07;3.20;;;;;;;20.85;37.26;99806.44;10190850;29;20471;-75
2023/07/02 16:43:51;;;;;;;10.02;4.60;;;;;;;23.79;33.20;99775.25;10196733;29;20043;-74
2023/07/02 16:48:55;;;;;;;9.23;3.70;;;;;;;24.19;32.60;99788.56;10196909;29;20048;-75
2023/07/02 16:53:58;;;;;;;9.25;4.78;;;;;;;22.99;35.29;99781.31;10202880;29;20043;-75
2023/07/02 16:59:02;;;;;;;6.32;3.83;;;;;;;26.07;31.40;99775.38;10200911;29;20511;-75
2023/07/02 17:04:06;;;;;;;9.02;4.07;;;;;;;25.12;31.70;99776.41;10197509;29;20496;-76
2023/07/02 17:09:21;;;;;;;10.70;3.85;;;;;;;21.04;37.09;99785.72;10198791;29;20059;-76
2023/07/02 17:14:27;;;;;;;7.70;3.78;;;;;;;21.31;35.74;99791.19;10203161;29;20070;-75
2023/07/02 17:19:34;;;;;;;7.07;4.00;;;;;;;19.41;39.39;99785.22;10197768;29;20044;-75
2023/07/02 17:24:39;;;;;;;8.48;3.72;;;;;;;19.60;39.56;99794.63;10201101;29;20047;-76
2023/07/02 17:29:43;;;;;;;9.73;3.92;;;;;;;19.97;39.49;99787.13;10200738;29;20682;-76
2023/07/02 17:34:47;;;;;;;11.48;4.30;;;;;;;20.19;39.34;99782.44;10198564;29;20040;-76
2023/07/02 17:39:50;;;;;;;6.05;3.47;;;;;;;19.32;40.12;99791.84;10195583;29;20857;-76
2023/07/02 17:44:57;;;;;;;8.07;4.05;;;;;;;19.65;40.06;99783.13;10195012;29;20043;-75
2023/07/02 17:50:01;;;;;;;7.35;3.67;;;;;;;19.39;41.26;99770.13;10196902;29;20051;-75
2023/07/02 17:55:07;;;;;;;7.90;3.38;;;;;;;18.66;41.69;99780.25;10195524;29;20036;-76
2023/07/02 18:00:11;;;;;;;8.73;3.90;;;;;;;19.02;41.56;99789.25;10202407;29;20127;-75
2023/07/02 18:05:15;;;;;;;7.72;3.60;;;;;;;18.98;41.73;99782.53;10198722;29;20043;-76
2023/07/02 18:10:18;;;;;;;9.02;3.85;;;;;;;18.80;41.95;99793.84;10191008;29;20504;-75
2023/07/02 18:15:22;;;;;;;8.60;3.80;;;;;;;18.93;41.73;99784.16;10191762;29;20036;-75
2023/07/02 18:20:28;;;;;;;8.25;4.28;;;;;;;18.78;42.06;99790.47;10199558;29;20048;-76
2023/07/02 18:25:31;;;;;;;10.18;4.07;;;;;;;18.97;42.13;99793.59;10202433;29;20439;-75
2023/07/02 18:30:36;;;;;;;8.18;3.33;;;;;;;18.99;42.33;99789.66;10202850;29;20134;-76
2023/07/02 18:35:42;;;;;;;10.05;4.40;;;;;;;18.61;43.12;99794.44;10201209;29;20122;-76
2023/07/02 18:40:45;;;;;;;13.25;5.03;;;;;;;18.27;43.40;99793.19;10198133;29;20146;-76
2023/07/02 18:45:51;;;;;;;7.15;3.08;;;;;;;18.02;43.74;99800.78;10191276;29;20040;-75
2023/07/02 18:50:55;;;;;;;7.68;3.90;;;;;;;18.06;44.09;99801.25;10193910;29;20044;-75
2023/07/02 18:56:00;;;;;;;9.88;4.22;;;;;;;18.16;43.72;99788.22;10198087;29;20519;-75
2023/07/02 19:01:08;;;;;;;16.42;3.47;;;;;;;17.92;44.38;99797.47;10200900;29;20487;-75
2023/07/02 19:06:13;;;;;;;5.47;3.58;;;;;;;17.96;43.80;99806.06;10208411;29;20040;-75
2023/07/02 19:11:16;;;;;;;9.32;3.33;;;;;;;18.02;44.15;99802.63;10199117;29;20056;-76
2023/07/02 19:16:19;;;;;;;10.27;3.85;;;;;;;17.90;44.30;99799.50;10202960;29;20051;-75
2023/07/02 19:21:23;;;;;;;9.60;3.67;;;;;;;17.48;44.41;99796.38;10199396;29;20201;-76
2023/07/02 19:26:28;;;;;;;7.40;4.07;;;;;;;17.09;44.96;99799.22;10200810;29;20052;-74
2023/07/02 19:31:31;;;;;;;10.20;4.45;;;;;;;17.30;44.47;99800.44;10203288;29;20515;-74
2023/07/02 19:36:35;;;;;;;12.50;4.40;;;;;;;17.32;44.84;99795.66;10208330;29;20055;-75
2023/07/02 19:41:38;;;;;;;9.40;3.78;;;;;;;17.08;44.33;99800.22;10206833;29;20055;-75
2023/07/02 19:46:43;;;;;;;8.48;3.72;;;;;;;17.06;45.03;99796.00;10204969;29;20052;-75
2023/07/02 19:51:49;;;;;;;7.28;3.80;;;;;;;17.41;44.75;99803.53;10204124;29;20499;-75
2023/07/02 19:56:53;;;;;;;15.27;4.50;;;;;;;17.43;44.45;99797.94;10199445;29;20039;-75
2023/07/02 20:01:55;;;;;;;9.68;4.10;;;;;;;17.47;45.21;99802.00;10199946;29;20043;-75
2023/07/02 20:07:00;;;;;;;8.63;4.60;;;;;;;17.40;45.57;99812.72;10191101;29;20514;-75
2023/07/02 20:12:04;;;;;;;9.77;3.53;;;;;;;17.22;45.22;99812.19;10194416;29;20088;-76
2023/07/02 20:17:08;;;;;;;9.60;4.10;;;;;;;17.18;45.19;99809.00;10197258;29;20047;-75
2023/07/02 20:22:12;;;;;;;7.95;3.88;;;;;;;17.13;45.14;99805.13;10198204;29;20051;-75
2023/07/02 20:27:18;;;;;;;7.93;3.67;;;;;;;17.10;45.34;99809.03;10184063;29;20052;-73
2023/07/02 20:32:22;;;;;;;5.78;3.80;;;;;;;17.05;45.19;99803.31;10189845;29;20074;-75
2023/07/02 20:37:30;;;;;;;14.50;4.35;;;;;;;17.02;45.39;99806.38;10186851;29;20044;-74
2023/07/02 20:42:34;;;;;;;9.20;4.47;;;;;;;17.04;45.25;99798.91;10196428;29;20047;-73
2023/07/02 20:47:36;;;;;;;9.95;4.40;;;;;;;17.00;44.80;99792.13;10195924;29;20069;-74
2023/07/02 20:52:41;;;;;;;12.25;4.43;;;;;;;17.04;45.25;99801.63;10193796;29;20874;-74
2023/07/02 20:57:44;;;;;;;9.38;3.97;;;;;;;16.98;44.64;99796.94;10202588;29;20040;-74
2023/07/02 21:02:47;;;;;;;7.50;3.95;;;;;;;16.82;45.05;99800.59;10197504;29;20072;-74
2023/07/02 21:07:51;;;;;;;8.55;3.95;;;;;;;16.72;45.67;99797.25;10192931;29;20500;-74
2023/07/02 21:12:54;;;;;;;7.00;4.07;;;;;;;16.68;45.75;99801.34;10197083;29;20040;-74
2023/07/02 21:17:57;;;;;;;12.27;4.00;;;;;;;16.59;46.04;99805.94;10199994;29;20036;-74
2023/07/02 21:23:01;;;;;;;10.27;4.25;;;;;;;16.71;45.59;99798.28;10201673;29;20411;-74
2023/07/02 21:28:05;;;;;;;7.90;3.88;;;;;;;16.69;45.56;99805.75;10202502;29;20050;-74
2023/07/02 21:33:07;;;;;;;6.63;3.75;;;;;;;16.69;45.59;99793.03;10196159;29;20122;-73
2023/07/02 21:38:12;;;;;;;9.80;4.18;;;;;;;16.68;45.58;99804.91;10197369;29;20675;-73
2023/07/02 21:43:15;;;;;;;9.48;4.28;;;;;;;16.67;45.42;99799.66;10178548;29;20503;-74
2023/07/02 21:48:18;;;;;;;7.00;3.75;;;;;;;16.69;45.80;99808.47;10192954;29;20047;-74
2023/07/02 21:53:22;;;;;;;11.38;4.28;;;;;;;16.69;45.45;99803.88;10198871;29;20094;-75
2023/07/02 21:58:25;;;;;;;10.52;4.82;;;;;;;16.71;45.55;99804.53;10199582;29;20054;-74
2023/07/02 22:03:28;;;;;;;9.35;4.22;;;;;;;16.57;45.90;99805.31;10189400;29;20099;-75
2023/07/02 22:08:32;;;;;;;8.45;4.30;;;;;;;16.55;46.57;99805.47;10186273;29;20052;-75
2023/07/02 22:13:35;;;;;;;9.23;4.57;;;;;;;16.63;46.28;99792.91;10178005;29;20522;-75
2023/07/02 22:18:40;;;;;;;12.55;4.88;;;;;;;16.65;46.14;99780.00;10188376;29;20052;-75
2023/07/02 22:23:46;;;;;;;8.98;4.70;;;;;;;16.58;46.26;99793.44;10179729;29;20040;-75
2023/07/02 22:28:49;;;;;;;9.77;4.68;;;;;;;16.56;46.80;99795.47;10187099;29;20047;-75
2023/07/02 22:33:52;;;;;;;10.15;5.03;;;;;;;16.55;46.54;99800.06;10190261;29;20491;-75
2023/07/02 22:38:56;;;;;;;8.25;4.43;;;;;;;16.48;46.76;99782.81;10195254;29;20050;-74
2023/07/02 22:43:59;;;;;;;9.43;3.70;;;;;;;16.38;47.38;99784.06;10193415;29;20122;-75
2023/07/02 22:49:05;;;;;;;10.23;4.50;;;;;;;16.42;47.31;99775.38;10186104;29;20044;-75
2023/07/02 22:54:09;;;;;;;12.98;4.78;;;;;;;16.42;47.45;99778.09;10184748;29;20091;-75